X  Chiuso Dati meteorologici dell'aviazione (METAR)     EHKD De Kooy Airport
Temperatura
48°F Temperatura
46°F Punto di rugiada
94% Umidità



Vento
15 MPH
24 KM/O
7 M/S
13 KTS



180°
S
Condizioni attuali

Nuvole per lo più sparse Nuvole per lo più sparse
Pressione 1002.03 (hPa) - 29.59 (inHg)
Visibilità 6 (miglio) - 9.7 (km)
Aeroporto
Codice-Aeroporto EHKD

Posizione: De Kooy Airport
Distanza: 34 (mi)

Metar:
EHKD 291900Z AUTO 18013KT 9999 SCT005 BKN007 09/08 Q1002 YLO

Ore: 29-02-2024 20:00 CET